VABB/BOM METAR and TAF weather

Enter ICAO airport designator
Station Type Date Time Source
VABB METAR 2021/01/17 18:00 UTC NOAA

VABB 171800Z 00000KT 3000 HZ NSC 25/19 Q1011 NOSIG


Station Type Date Time Source
VABB Decoded METAR 2021/01/17 18:00 UTC NOAA

Bombay / Santacruz, India (VABB) 19-07N 072-51E 14M
Jan 17, 2021 - 01:00 PM EST / 2021.01.17 1800 UTC
Wind: Calm:0
Visibility: 1 mile(s):0
Weather: haze
Temperature: 77 F (25 C)
Dew Point: 66 F (19 C)
Relative Humidity: 69%
Pressure (altimeter): 29.85 in. Hg (1011 hPa)
ob: VABB 171800Z 00000KT 3000 HZ NSC 25/19 Q1011 NOSIG
cycle: 18

Station Type Date Time Source
VABB TAF 2021/01/17 18:58 UTC NOAA

TAF VABB 171700Z 1718/1824 32005KT 2500 HZ FEW100
BECMG 1800/1802 01005KT 2000 HZ
TEMPO 1801/1804 1500 BR
BECMG 1804/1806 2500 HZ
BECMG 1806/1808 29010KT 3000 FU SCT100
BECMG 1813/1815 34005KT 2500 HZ

Example: see airport list